sensor_id;sensor_type;location;lat;lon;timestamp;temperature;humidity
18444;DHT22;9350;53.176;8.194;2023-07-29T00:01:13;19.30;99.90
18444;DHT22;9350;53.176;8.194;2023-07-29T00:03:40;19.30;99.90
18444;DHT22;9350;53.176;8.194;2023-07-29T00:06:07;19.30;99.90
18444;DHT22;9350;53.176;8.194;2023-07-29T00:08:34;19.30;99.90
18444;DHT22;9350;53.176;8.194;2023-07-29T00:11:02;19.30;99.90
18444;DHT22;9350;53.176;8.194;2023-07-29T00:13:28;19.30;99.90
18444;DHT22;9350;53.176;8.194;2023-07-29T00:15:55;19.30;99.90
18444;DHT22;9350;53.176;8.194;2023-07-29T00:18:22;19.30;99.90
18444;DHT22;9350;53.176;8.194;2023-07-29T00:20:49;19.20;99.90
18444;DHT22;9350;53.176;8.194;2023-07-29T00:23:17;19.10;99.90
18444;DHT22;9350;53.176;8.194;2023-07-29T00:25:45;19.20;99.90
18444;DHT22;9350;53.176;8.194;2023-07-29T00:28:13;19.10;99.90
18444;DHT22;9350;53.176;8.194;2023-07-29T00:30:39;19.00;99.90
18444;DHT22;9350;53.176;8.194;2023-07-29T00:33:06;19.00;99.90
18444;DHT22;9350;53.176;8.194;2023-07-29T00:35:33;18.90;99.90
18444;DHT22;9350;53.176;8.194;2023-07-29T00:38:00;18.90;99.90
18444;DHT22;9350;53.176;8.194;2023-07-29T00:40:28;18.90;99.90
18444;DHT22;9350;53.176;8.194;2023-07-29T00:42:55;18.80;99.90
18444;DHT22;9350;53.176;8.194;2023-07-29T00:45:25;18.80;99.90
18444;DHT22;9350;53.176;8.194;2023-07-29T00:47:52;18.80;99.90
18444;DHT22;9350;53.176;8.194;2023-07-29T00:50:19;18.80;99.90
18444;DHT22;9350;53.176;8.194;2023-07-29T00:52:46;18.80;99.90
18444;DHT22;9350;53.176;8.194;2023-07-29T00:55:13;18.70;99.90
18444;DHT22;9350;53.176;8.194;2023-07-29T00:57:39;18.70;99.90
18444;DHT22;9350;53.176;8.194;2023-07-29T01:00:07;18.60;99.90
18444;DHT22;9350;53.176;8.194;2023-07-29T01:02:35;18.60;99.90
18444;DHT22;9350;53.176;8.194;2023-07-29T01:05:02;18.60;99.90
18444;DHT22;9350;53.176;8.194;2023-07-29T01:07:33;18.60;99.90
18444;DHT22;9350;53.176;8.194;2023-07-29T01:10:05;18.50;99.90
18444;DHT22;9350;53.176;8.194;2023-07-29T01:12:37;18.50;99.90
18444;DHT22;9350;53.176;8.194;2023-07-29T01:15:13;18.40;99.90
18444;DHT22;9350;53.176;8.194;2023-07-29T01:17:46;18.50;99.90
18444;DHT22;9350;53.176;8.194;2023-07-29T01:20:15;18.40;99.90
18444;DHT22;9350;53.176;8.194;2023-07-29T01:22:42;18.40;99.90
18444;DHT22;9350;53.176;8.194;2023-07-29T01:25:11;18.40;99.90
18444;DHT22;9350;53.176;8.194;2023-07-29T01:27:37;18.40;99.90
18444;DHT22;9350;53.176;8.194;2023-07-29T01:30:05;18.40;99.90
18444;DHT22;9350;53.176;8.194;2023-07-29T01:32:37;18.30;99.90
18444;DHT22;9350;53.176;8.194;2023-07-29T01:35:14;18.30;99.90
18444;DHT22;9350;53.176;8.194;2023-07-29T01:37:43;18.30;99.90
18444;DHT22;9350;53.176;8.194;2023-07-29T01:40:12;18.30;99.90
18444;DHT22;9350;53.176;8.194;2023-07-29T01:42:39;18.30;99.90
18444;DHT22;9350;53.176;8.194;2023-07-29T01:45:07;18.30;99.90
18444;DHT22;9350;53.176;8.194;2023-07-29T01:47:33;18.20;99.90
18444;DHT22;9350;53.176;8.194;2023-07-29T01:50:00;18.20;99.90
18444;DHT22;9350;53.176;8.194;2023-07-29T01:52:27;18.20;99.90
18444;DHT22;9350;53.176;8.194;2023-07-29T01:54:53;18.20;99.90
18444;DHT22;9350;53.176;8.194;2023-07-29T01:57:21;18.20;99.90
18444;DHT22;9350;53.176;8.194;2023-07-29T01:59:48;18.20;99.90
18444;DHT22;9350;53.176;8.194;2023-07-29T02:02:15;18.10;99.90
18444;DHT22;9350;53.176;8.194;2023-07-29T02:04:41;18.10;99.90
18444;DHT22;9350;53.176;8.194;2023-07-29T02:07:08;18.10;99.90
18444;DHT22;9350;53.176;8.194;2023-07-29T02:09:35;18.10;99.90
18444;DHT22;9350;53.176;8.194;2023-07-29T02:12:01;18.20;99.90
18444;DHT22;9350;53.176;8.194;2023-07-29T02:14:30;18.10;99.90
18444;DHT22;9350;53.176;8.194;2023-07-29T02:16:56;18.10;99.90
18444;DHT22;9350;53.176;8.194;2023-07-29T02:19:23;18.10;99.90
18444;DHT22;9350;53.176;8.194;2023-07-29T02:21:50;18.10;99.90
18444;DHT22;9350;53.176;8.194;2023-07-29T02:24:16;18.10;99.90
18444;DHT22;9350;53.176;8.194;2023-07-29T02:26:43;18.20;99.90
18444;DHT22;9350;53.176;8.194;2023-07-29T02:29:09;18.20;99.90
18444;DHT22;9350;53.176;8.194;2023-07-29T02:31:37;18.10;99.90
18444;DHT22;9350;53.176;8.194;2023-07-29T02:34:04;18.20;99.90
18444;DHT22;9350;53.176;8.194;2023-07-29T02:36:31;18.20;99.90
18444;DHT22;9350;53.176;8.194;2023-07-29T02:38:58;18.20;99.90
18444;DHT22;9350;53.176;8.194;2023-07-29T02:41:24;18.20;99.90
18444;DHT22;9350;53.176;8.194;2023-07-29T02:43:51;18.30;99.90
18444;DHT22;9350;53.176;8.194;2023-07-29T02:46:18;18.30;99.90
18444;DHT22;9350;53.176;8.194;2023-07-29T02:48:45;18.30;99.90
18444;DHT22;9350;53.176;8.194;2023-07-29T02:51:12;18.40;99.90
18444;DHT22;9350;53.176;8.194;2023-07-29T02:53:39;18.30;99.90
18444;DHT22;9350;53.176;8.194;2023-07-29T02:56:06;18.30;99.90
18444;DHT22;9350;53.176;8.194;2023-07-29T02:58:34;18.40;99.90
18444;DHT22;9350;53.176;8.194;2023-07-29T03:01:01;18.40;99.90
18444;DHT22;9350;53.176;8.194;2023-07-29T03:03:28;18.40;99.90
18444;DHT22;9350;53.176;8.194;2023-07-29T03:05:59;18.50;99.90
18444;DHT22;9350;53.176;8.194;2023-07-29T03:08:26;18.50;99.90
18444;DHT22;9350;53.176;8.194;2023-07-29T03:10:53;18.50;99.90
18444;DHT22;9350;53.176;8.194;2023-07-29T03:13:20;18.50;99.90
18444;DHT22;9350;53.176;8.194;2023-07-29T03:15:47;18.50;99.90
18444;DHT22;9350;53.176;8.194;2023-07-29T03:18:14;18.60;99.90
18444;DHT22;9350;53.176;8.194;2023-07-29T03:20:41;18.60;99.90
18444;DHT22;9350;53.176;8.194;2023-07-29T03:23:09;18.60;99.90
18444;DHT22;9350;53.176;8.194;2023-07-29T03:25:36;18.60;99.90
18444;DHT22;9350;53.176;8.194;2023-07-29T03:28:02;18.60;99.90
18444;DHT22;9350;53.176;8.194;2023-07-29T03:30:29;18.60;99.90
18444;DHT22;9350;53.176;8.194;2023-07-29T03:32:56;18.60;99.90
18444;DHT22;9350;53.176;8.194;2023-07-29T03:35:23;18.60;99.90
18444;DHT22;9350;53.176;8.194;2023-07-29T03:37:49;18.60;99.90
18444;DHT22;9350;53.176;8.194;2023-07-29T03:40:18;18.60;99.90
18444;DHT22;9350;53.176;8.194;2023-07-29T03:42:44;18.60;99.90
18444;DHT22;9350;53.176;8.194;2023-07-29T03:45:11;18.60;99.90
18444;DHT22;9350;53.176;8.194;2023-07-29T03:47:38;18.60;99.90
18444;DHT22;9350;53.176;8.194;2023-07-29T03:50:06;18.60;99.90
18444;DHT22;9350;53.176;8.194;2023-07-29T03:52:32;18.60;99.90
18444;DHT22;9350;53.176;8.194;2023-07-29T03:54:59;18.60;99.90
18444;DHT22;9350;53.176;8.194;2023-07-29T03:57:27;18.60;99.90
18444;DHT22;9350;53.176;8.194;2023-07-29T03:59:55;18.60;99.90
18444;DHT22;9350;53.176;8.194;2023-07-29T04:02:21;18.70;99.90
18444;DHT22;9350;53.176;8.194;2023-07-29T04:04:48;18.70;99.90
18444;DHT22;9350;53.176;8.194;2023-07-29T04:07:15;18.70;99.90
18444;DHT22;9350;53.176;8.194;2023-07-29T04:09:41;18.60;99.90
18444;DHT22;9350;53.176;8.194;2023-07-29T04:12:09;18.60;99.90
18444;DHT22;9350;53.176;8.194;2023-07-29T04:14:37;18.60;99.90
18444;DHT22;9350;53.176;8.194;2023-07-29T04:17:04;18.60;99.90
18444;DHT22;9350;53.176;8.194;2023-07-29T04:19:31;18.60;99.90
18444;DHT22;9350;53.176;8.194;2023-07-29T04:21:58;18.60;99.90
18444;DHT22;9350;53.176;8.194;2023-07-29T04:24:24;18.60;99.90
18444;DHT22;9350;53.176;8.194;2023-07-29T04:26:51;18.60;99.90
18444;DHT22;9350;53.176;8.194;2023-07-29T04:29:18;18.50;99.90
18444;DHT22;9350;53.176;8.194;2023-07-29T04:31:46;18.60;99.90
18444;DHT22;9350;53.176;8.194;2023-07-29T04:34:12;18.60;99.90
18444;DHT22;9350;53.176;8.194;2023-07-29T04:36:39;18.60;99.90
18444;DHT22;9350;53.176;8.194;2023-07-29T04:39:06;18.60;99.90
18444;DHT22;9350;53.176;8.194;2023-07-29T04:41:33;18.60;99.90
18444;DHT22;9350;53.176;8.194;2023-07-29T04:43:59;18.60;99.90
18444;DHT22;9350;53.176;8.194;2023-07-29T04:46:26;18.60;99.90
18444;DHT22;9350;53.176;8.194;2023-07-29T04:48:54;18.60;99.90
18444;DHT22;9350;53.176;8.194;2023-07-29T04:51:21;18.70;99.90
18444;DHT22;9350;53.176;8.194;2023-07-29T04:53:48;18.70;99.90
18444;DHT22;9350;53.176;8.194;2023-07-29T04:56:14;18.70;99.90
18444;DHT22;9350;53.176;8.194;2023-07-29T04:58:41;18.70;99.90
18444;DHT22;9350;53.176;8.194;2023-07-29T05:01:08;18.70;99.90
18444;DHT22;9350;53.176;8.194;2023-07-29T05:03:35;18.70;99.90
18444;DHT22;9350;53.176;8.194;2023-07-29T05:06:06;18.80;99.90
18444;DHT22;9350;53.176;8.194;2023-07-29T05:08:33;18.80;99.90
18444;DHT22;9350;53.176;8.194;2023-07-29T05:11:00;18.80;99.90
18444;DHT22;9350;53.176;8.194;2023-07-29T05:13:26;18.80;99.90
18444;DHT22;9350;53.176;8.194;2023-07-29T05:15:53;18.80;99.90
18444;DHT22;9350;53.176;8.194;2023-07-29T05:18:20;18.80;99.90
18444;DHT22;9350;53.176;8.194;2023-07-29T05:20:47;18.80;99.90
18444;DHT22;9350;53.176;8.194;2023-07-29T05:23:15;18.90;99.90
18444;DHT22;9350;53.176;8.194;2023-07-29T05:25:42;18.90;99.90
18444;DHT22;9350;53.176;8.194;2023-07-29T05:28:08;18.90;99.90
18444;DHT22;9350;53.176;8.194;2023-07-29T05:30:35;18.90;99.90
18444;DHT22;9350;53.176;8.194;2023-07-29T05:33:03;18.90;99.90
18444;DHT22;9350;53.176;8.194;2023-07-29T05:35:30;18.90;99.90
18444;DHT22;9350;53.176;8.194;2023-07-29T05:37:56;18.90;99.90
18444;DHT22;9350;53.176;8.194;2023-07-29T05:40:24;18.90;99.90
18444;DHT22;9350;53.176;8.194;2023-07-29T05:42:51;18.90;99.90
18444;DHT22;9350;53.176;8.194;2023-07-29T05:45:18;19.00;99.90
18444;DHT22;9350;53.176;8.194;2023-07-29T05:47:44;19.00;99.90
18444;DHT22;9350;53.176;8.194;2023-07-29T05:50:11;19.00;99.90
18444;DHT22;9350;53.176;8.194;2023-07-29T05:52:38;19.00;99.90
18444;DHT22;9350;53.176;8.194;2023-07-29T05:55:05;19.00;99.90
18444;DHT22;9350;53.176;8.194;2023-07-29T05:57:34;19.10;99.90
18444;DHT22;9350;53.176;8.194;2023-07-29T06:00:00;19.10;99.90
18444;DHT22;9350;53.176;8.194;2023-07-29T06:02:27;19.10;99.90
18444;DHT22;9350;53.176;8.194;2023-07-29T06:04:54;19.10;99.90
18444;DHT22;9350;53.176;8.194;2023-07-29T06:07:20;19.10;99.90
18444;DHT22;9350;53.176;8.194;2023-07-29T06:09:47;19.20;99.90
18444;DHT22;9350;53.176;8.194;2023-07-29T06:12:14;19.10;99.90
18444;DHT22;9350;53.176;8.194;2023-07-29T06:14:42;19.20;99.90
18444;DHT22;9350;53.176;8.194;2023-07-29T06:17:08;19.20;99.90
18444;DHT22;9350;53.176;8.194;2023-07-29T06:19:36;19.20;99.90
18444;DHT22;9350;53.176;8.194;2023-07-29T06:22:03;19.20;99.90
18444;DHT22;9350;53.176;8.194;2023-07-29T06:24:31;19.20;99.90
18444;DHT22;9350;53.176;8.194;2023-07-29T06:26:57;19.20;99.90
18444;DHT22;9350;53.176;8.194;2023-07-29T06:29:24;19.20;99.90
18444;DHT22;9350;53.176;8.194;2023-07-29T06:31:52;19.20;99.90
18444;DHT22;9350;53.176;8.194;2023-07-29T06:34:20;19.20;99.90
18444;DHT22;9350;53.176;8.194;2023-07-29T06:36:46;19.20;99.90
18444;DHT22;9350;53.176;8.194;2023-07-29T06:39:13;19.20;99.90
18444;DHT22;9350;53.176;8.194;2023-07-29T06:41:40;19.20;99.90
18444;DHT22;9350;53.176;8.194;2023-07-29T06:44:06;19.20;99.90
18444;DHT22;9350;53.176;8.194;2023-07-29T06:46:33;19.20;99.90
18444;DHT22;9350;53.176;8.194;2023-07-29T06:49:01;19.20;99.90
18444;DHT22;9350;53.176;8.194;2023-07-29T06:51:28;19.20;99.90
18444;DHT22;9350;53.176;8.194;2023-07-29T06:53:57;19.30;99.90
18444;DHT22;9350;53.176;8.194;2023-07-29T06:56:24;19.30;99.90
18444;DHT22;9350;53.176;8.194;2023-07-29T06:58:51;19.30;99.90
18444;DHT22;9350;53.176;8.194;2023-07-29T07:01:18;19.40;99.90
18444;DHT22;9350;53.176;8.194;2023-07-29T07:03:44;19.40;99.90
18444;DHT22;9350;53.176;8.194;2023-07-29T07:06:12;19.50;99.90
18444;DHT22;9350;53.176;8.194;2023-07-29T07:08:39;19.50;99.90
18444;DHT22;9350;53.176;8.194;2023-07-29T07:11:07;19.50;99.90
18444;DHT22;9350;53.176;8.194;2023-07-29T07:13:34;19.40;99.90
18444;DHT22;9350;53.176;8.194;2023-07-29T07:16:00;19.40;99.90
18444;DHT22;9350;53.176;8.194;2023-07-29T07:18:27;19.50;99.90
18444;DHT22;9350;53.176;8.194;2023-07-29T07:20:54;19.50;99.90
18444;DHT22;9350;53.176;8.194;2023-07-29T07:23:22;19.50;99.90
18444;DHT22;9350;53.176;8.194;2023-07-29T07:25:49;19.50;99.90
18444;DHT22;9350;53.176;8.194;2023-07-29T07:28:15;19.60;99.90
18444;DHT22;9350;53.176;8.194;2023-07-29T07:30:42;19.60;99.90
18444;DHT22;9350;53.176;8.194;2023-07-29T07:33:09;19.60;99.90
18444;DHT22;9350;53.176;8.194;2023-07-29T07:35:35;19.60;99.90
18444;DHT22;9350;53.176;8.194;2023-07-29T07:38:02;19.70;99.90
18444;DHT22;9350;53.176;8.194;2023-07-29T07:40:31;19.60;99.90
18444;DHT22;9350;53.176;8.194;2023-07-29T07:42:58;19.70;99.90
18444;DHT22;9350;53.176;8.194;2023-07-29T07:45:25;19.70;99.90
18444;DHT22;9350;53.176;8.194;2023-07-29T07:47:52;19.80;99.90
18444;DHT22;9350;53.176;8.194;2023-07-29T07:50:19;19.80;99.90
18444;DHT22;9350;53.176;8.194;2023-07-29T07:52:46;19.90;99.90
18444;DHT22;9350;53.176;8.194;2023-07-29T07:55:12;19.90;99.90
18444;DHT22;9350;53.176;8.194;2023-07-29T07:57:40;19.90;99.90
18444;DHT22;9350;53.176;8.194;2023-07-29T08:00:08;19.90;99.90
18444;DHT22;9350;53.176;8.194;2023-07-29T08:02:36;19.80;99.90
18444;DHT22;9350;53.176;8.194;2023-07-29T08:05:03;19.80;99.90
18444;DHT22;9350;53.176;8.194;2023-07-29T08:07:29;19.80;99.90
18444;DHT22;9350;53.176;8.194;2023-07-29T08:09:56;19.90;99.90
18444;DHT22;9350;53.176;8.194;2023-07-29T08:12:23;19.90;99.90
18444;DHT22;9350;53.176;8.194;2023-07-29T08:14:51;19.90;99.90
18444;DHT22;9350;53.176;8.194;2023-07-29T08:17:18;19.90;99.90
18444;DHT22;9350;53.176;8.194;2023-07-29T08:19:44;20.00;99.90
18444;DHT22;9350;53.176;8.194;2023-07-29T08:22:12;20.10;99.90
18444;DHT22;9350;53.176;8.194;2023-07-29T08:24:39;20.10;99.90
18444;DHT22;9350;53.176;8.194;2023-07-29T08:27:06;20.10;99.90
18444;DHT22;9350;53.176;8.194;2023-07-29T08:29:33;20.10;99.90
18444;DHT22;9350;53.176;8.194;2023-07-29T08:32:01;20.10;99.90
18444;DHT22;9350;53.176;8.194;2023-07-29T08:34:27;20.10;99.90
18444;DHT22;9350;53.176;8.194;2023-07-29T08:36:54;20.10;99.90
18444;DHT22;9350;53.176;8.194;2023-07-29T08:39:21;20.20;99.90
18444;DHT22;9350;53.176;8.194;2023-07-29T08:41:53;20.20;99.90
18444;DHT22;9350;53.176;8.194;2023-07-29T08:44:21;20.10;99.90
18444;DHT22;9350;53.176;8.194;2023-07-29T08:46:49;20.10;99.90
18444;DHT22;9350;53.176;8.194;2023-07-29T08:49:18;20.20;99.90
18444;DHT22;9350;53.176;8.194;2023-07-29T08:51:46;20.20;99.90
18444;DHT22;9350;53.176;8.194;2023-07-29T08:54:13;20.20;99.90
18444;DHT22;9350;53.176;8.194;2023-07-29T08:56:41;20.30;99.90
18444;DHT22;9350;53.176;8.194;2023-07-29T08:59:08;20.30;99.90
18444;DHT22;9350;53.176;8.194;2023-07-29T09:01:36;20.50;99.90
18444;DHT22;9350;53.176;8.194;2023-07-29T09:04:03;20.50;99.90
18444;DHT22;9350;53.176;8.194;2023-07-29T09:06:32;20.50;99.90
18444;DHT22;9350;53.176;8.194;2023-07-29T09:08:59;20.50;99.90
18444;DHT22;9350;53.176;8.194;2023-07-29T09:11:26;20.50;99.90
18444;DHT22;9350;53.176;8.194;2023-07-29T09:13:53;20.60;99.90
18444;DHT22;9350;53.176;8.194;2023-07-29T09:16:20;20.80;99.90
18444;DHT22;9350;53.176;8.194;2023-07-29T09:18:47;20.90;99.90
18444;DHT22;9350;53.176;8.194;2023-07-29T09:21:16;21.10;99.90
18444;DHT22;9350;53.176;8.194;2023-07-29T09:23:44;21.10;99.90
18444;DHT22;9350;53.176;8.194;2023-07-29T09:26:11;21.20;99.90
18444;DHT22;9350;53.176;8.194;2023-07-29T09:28:39;21.20;99.90
18444;DHT22;9350;53.176;8.194;2023-07-29T09:31:06;21.20;99.90
18444;DHT22;9350;53.176;8.194;2023-07-29T09:33:34;21.30;99.90
18444;DHT22;9350;53.176;8.194;2023-07-29T09:36:03;21.30;99.90
18444;DHT22;9350;53.176;8.194;2023-07-29T09:38:29;21.10;99.90
18444;DHT22;9350;53.176;8.194;2023-07-29T09:40:58;21.10;99.90
18444;DHT22;9350;53.176;8.194;2023-07-29T09:43:29;21.10;99.90
18444;DHT22;9350;53.176;8.194;2023-07-29T09:45:59;21.10;99.90
18444;DHT22;9350;53.176;8.194;2023-07-29T09:48:26;21.20;99.90
18444;DHT22;9350;53.176;8.194;2023-07-29T09:50:54;21.40;99.90
18444;DHT22;9350;53.176;8.194;2023-07-29T09:53:21;21.50;99.90
18444;DHT22;9350;53.176;8.194;2023-07-29T09:55:48;21.70;99.90
18444;DHT22;9350;53.176;8.194;2023-07-29T09:58:22;21.70;99.90
18444;DHT22;9350;53.176;8.194;2023-07-29T10:00:52;21.70;99.90
18444;DHT22;9350;53.176;8.194;2023-07-29T10:03:19;21.60;99.90
18444;DHT22;9350;53.176;8.194;2023-07-29T10:05:47;21.40;99.90
18444;DHT22;9350;53.176;8.194;2023-07-29T10:08:14;21.30;99.90
18444;DHT22;9350;53.176;8.194;2023-07-29T10:10:42;21.30;99.90
18444;DHT22;9350;53.176;8.194;2023-07-29T10:13:09;21.30;99.90
18444;DHT22;9350;53.176;8.194;2023-07-29T10:15:37;21.20;99.90
18444;DHT22;9350;53.176;8.194;2023-07-29T10:18:04;21.20;99.90
18444;DHT22;9350;53.176;8.194;2023-07-29T10:20:32;21.20;99.90
18444;DHT22;9350;53.176;8.194;2023-07-29T10:23:00;21.30;99.90
18444;DHT22;9350;53.176;8.194;2023-07-29T10:25:38;21.40;99.90
18444;DHT22;9350;53.176;8.194;2023-07-29T10:28:06;21.60;99.90
18444;DHT22;9350;53.176;8.194;2023-07-29T10:30:33;21.80;99.90
18444;DHT22;9350;53.176;8.194;2023-07-29T10:33:03;21.80;99.90
18444;DHT22;9350;53.176;8.194;2023-07-29T10:35:32;21.70;99.90
18444;DHT22;9350;53.176;8.194;2023-07-29T10:38:00;21.60;99.90
18444;DHT22;9350;53.176;8.194;2023-07-29T10:40:43;21.60;99.90
18444;DHT22;9350;53.176;8.194;2023-07-29T10:43:12;21.60;99.90
18444;DHT22;9350;53.176;8.194;2023-07-29T10:45:41;21.60;99.90
18444;DHT22;9350;53.176;8.194;2023-07-29T10:48:12;21.60;99.90
18444;DHT22;9350;53.176;8.194;2023-07-29T10:50:39;21.60;99.90
18444;DHT22;9350;53.176;8.194;2023-07-29T10:53:06;21.60;99.90
18444;DHT22;9350;53.176;8.194;2023-07-29T10:55:34;21.60;99.90
18444;DHT22;9350;53.176;8.194;2023-07-29T10:58:12;21.60;99.90
18444;DHT22;9350;53.176;8.194;2023-07-29T11:00:41;21.50;99.90
18444;DHT22;9350;53.176;8.194;2023-07-29T11:03:08;21.40;99.90
18444;DHT22;9350;53.176;8.194;2023-07-29T11:05:58;21.40;99.90
18444;DHT22;9350;53.176;8.194;2023-07-29T11:08:31;21.40;99.90
18444;DHT22;9350;53.176;8.194;2023-07-29T11:11:02;21.40;99.90
18444;DHT22;9350;53.176;8.194;2023-07-29T11:13:29;21.20;99.90
18444;DHT22;9350;53.176;8.194;2023-07-29T11:15:57;21.20;99.90
18444;DHT22;9350;53.176;8.194;2023-07-29T11:18:28;21.30;99.90
18444;DHT22;9350;53.176;8.194;2023-07-29T11:20:56;21.30;99.90
18444;DHT22;9350;53.176;8.194;2023-07-29T11:23:32;21.40;99.90
18444;DHT22;9350;53.176;8.194;2023-07-29T11:25:59;21.40;99.90
18444;DHT22;9350;53.176;8.194;2023-07-29T11:28:27;21.40;99.90
18444;DHT22;9350;53.176;8.194;2023-07-29T11:30:55;21.50;99.90
18444;DHT22;9350;53.176;8.194;2023-07-29T11:33:23;21.50;99.90
18444;DHT22;9350;53.176;8.194;2023-07-29T11:35:51;21.50;99.90
18444;DHT22;9350;53.176;8.194;2023-07-29T11:38:19;21.60;99.90
18444;DHT22;9350;53.176;8.194;2023-07-29T11:40:59;21.60;99.90
18444;DHT22;9350;53.176;8.194;2023-07-29T11:43:26;21.70;99.90
18444;DHT22;9350;53.176;8.194;2023-07-29T11:45:53;21.80;99.90
18444;DHT22;9350;53.176;8.194;2023-07-29T11:48:27;21.90;99.90
18444;DHT22;9350;53.176;8.194;2023-07-29T11:50:54;22.00;99.90
18444;DHT22;9350;53.176;8.194;2023-07-29T11:53:21;22.00;99.90
18444;DHT22;9350;53.176;8.194;2023-07-29T11:55:50;22.00;99.90
18444;DHT22;9350;53.176;8.194;2023-07-29T11:58:20;22.00;99.90
18444;DHT22;9350;53.176;8.194;2023-07-29T12:00:47;22.10;99.90
18444;DHT22;9350;53.176;8.194;2023-07-29T12:03:15;22.00;99.90
18444;DHT22;9350;53.176;8.194;2023-07-29T12:05:43;22.10;99.90
18444;DHT22;9350;53.176;8.194;2023-07-29T12:08:10;22.10;99.90
18444;DHT22;9350;53.176;8.194;2023-07-29T12:10:37;22.00;99.90
18444;DHT22;9350;53.176;8.194;2023-07-29T12:13:04;22.10;99.90
18444;DHT22;9350;53.176;8.194;2023-07-29T12:15:32;22.20;99.90
18444;DHT22;9350;53.176;8.194;2023-07-29T12:17:59;22.30;99.90
18444;DHT22;9350;53.176;8.194;2023-07-29T12:20:27;22.50;99.90
18444;DHT22;9350;53.176;8.194;2023-07-29T12:22:56;22.70;99.90
18444;DHT22;9350;53.176;8.194;2023-07-29T12:25:23;22.70;99.90
18444;DHT22;9350;53.176;8.194;2023-07-29T12:27:50;22.80;99.90
18444;DHT22;9350;53.176;8.194;2023-07-29T12:30:20;22.80;99.90
18444;DHT22;9350;53.176;8.194;2023-07-29T12:32:48;22.80;99.90
18444;DHT22;9350;53.176;8.194;2023-07-29T12:35:15;22.70;99.90
18444;DHT22;9350;53.176;8.194;2023-07-29T12:37:42;22.70;99.90
18444;DHT22;9350;53.176;8.194;2023-07-29T12:40:21;22.70;99.90
18444;DHT22;9350;53.176;8.194;2023-07-29T12:42:48;22.70;99.90
18444;DHT22;9350;53.176;8.194;2023-07-29T12:45:16;22.70;99.90
18444;DHT22;9350;53.176;8.194;2023-07-29T12:47:42;22.80;99.90
18444;DHT22;9350;53.176;8.194;2023-07-29T12:50:11;22.80;99.90
18444;DHT22;9350;53.176;8.194;2023-07-29T12:52:37;22.80;99.90
18444;DHT22;9350;53.176;8.194;2023-07-29T12:55:05;22.90;99.90
18444;DHT22;9350;53.176;8.194;2023-07-29T12:57:34;23.00;99.90
18444;DHT22;9350;53.176;8.194;2023-07-29T13:00:01;23.00;99.90
18444;DHT22;9350;53.176;8.194;2023-07-29T13:02:29;23.10;99.90
18444;DHT22;9350;53.176;8.194;2023-07-29T13:04:55;23.00;99.90
18444;DHT22;9350;53.176;8.194;2023-07-29T13:07:23;22.90;99.90
18444;DHT22;9350;53.176;8.194;2023-07-29T13:09:50;22.80;99.90
18444;DHT22;9350;53.176;8.194;2023-07-29T13:12:17;22.80;99.90
18444;DHT22;9350;53.176;8.194;2023-07-29T13:14:44;22.80;99.90
18444;DHT22;9350;53.176;8.194;2023-07-29T13:17:10;22.90;99.90
18444;DHT22;9350;53.176;8.194;2023-07-29T13:19:37;23.20;99.90
18444;DHT22;9350;53.176;8.194;2023-07-29T13:22:04;23.40;99.90
18444;DHT22;9350;53.176;8.194;2023-07-29T13:24:32;23.40;99.90
18444;DHT22;9350;53.176;8.194;2023-07-29T13:26:58;23.30;99.90
18444;DHT22;9350;53.176;8.194;2023-07-29T13:29:25;23.30;99.90
18444;DHT22;9350;53.176;8.194;2023-07-29T13:31:52;23.30;99.90
18444;DHT22;9350;53.176;8.194;2023-07-29T13:34:19;23.20;99.90
18444;DHT22;9350;53.176;8.194;2023-07-29T13:36:45;23.10;99.90
18444;DHT22;9350;53.176;8.194;2023-07-29T13:39:12;22.90;99.90
18444;DHT22;9350;53.176;8.194;2023-07-29T13:41:40;22.60;99.90
18444;DHT22;9350;53.176;8.194;2023-07-29T13:44:07;22.20;99.90
18444;DHT22;9350;53.176;8.194;2023-07-29T13:46:33;21.90;99.90
18444;DHT22;9350;53.176;8.194;2023-07-29T13:49:00;21.90;99.90
18444;DHT22;9350;53.176;8.194;2023-07-29T13:51:27;21.80;99.90
18444;DHT22;9350;53.176;8.194;2023-07-29T13:53:54;21.80;99.90
18444;DHT22;9350;53.176;8.194;2023-07-29T13:56:21;21.80;99.90
18444;DHT22;9350;53.176;8.194;2023-07-29T13:58:49;21.70;99.90
18444;DHT22;9350;53.176;8.194;2023-07-29T14:01:16;21.60;99.90
18444;DHT22;9350;53.176;8.194;2023-07-29T14:03:43;21.60;99.90
18444;DHT22;9350;53.176;8.194;2023-07-29T14:06:09;21.50;99.90
18444;DHT22;9350;53.176;8.194;2023-07-29T14:08:36;21.40;99.90
18444;DHT22;9350;53.176;8.194;2023-07-29T14:11:06;21.30;99.90
18444;DHT22;9350;53.176;8.194;2023-07-29T14:13:32;21.30;99.90
18444;DHT22;9350;53.176;8.194;2023-07-29T14:16:01;21.30;99.90
18444;DHT22;9350;53.176;8.194;2023-07-29T14:18:28;21.30;99.90
18444;DHT22;9350;53.176;8.194;2023-07-29T14:20:55;21.30;99.90
18444;DHT22;9350;53.176;8.194;2023-07-29T14:23:21;21.40;99.90
18444;DHT22;9350;53.176;8.194;2023-07-29T14:25:48;21.60;99.90
18444;DHT22;9350;53.176;8.194;2023-07-29T14:28:15;21.80;99.90
18444;DHT22;9350;53.176;8.194;2023-07-29T14:30:41;22.00;99.90
18444;DHT22;9350;53.176;8.194;2023-07-29T14:33:10;22.20;99.90
18444;DHT22;9350;53.176;8.194;2023-07-29T14:35:37;22.30;99.90
18444;DHT22;9350;53.176;8.194;2023-07-29T14:38:03;22.50;99.90
18444;DHT22;9350;53.176;8.194;2023-07-29T14:40:30;22.50;99.90
18444;DHT22;9350;53.176;8.194;2023-07-29T14:42:57;22.50;99.90
18444;DHT22;9350;53.176;8.194;2023-07-29T14:45:23;22.50;99.90
18444;DHT22;9350;53.176;8.194;2023-07-29T14:47:50;22.60;99.90
18444;DHT22;9350;53.176;8.194;2023-07-29T14:50:18;22.70;99.90
18444;DHT22;9350;53.176;8.194;2023-07-29T14:52:45;22.70;99.90
18444;DHT22;9350;53.176;8.194;2023-07-29T14:55:11;22.70;99.90
18444;DHT22;9350;53.176;8.194;2023-07-29T14:57:38;22.70;99.90
18444;DHT22;9350;53.176;8.194;2023-07-29T15:00:07;22.70;99.90
18444;DHT22;9350;53.176;8.194;2023-07-29T15:02:34;22.70;99.90
18444;DHT22;9350;53.176;8.194;2023-07-29T15:05:00;22.70;99.90
18444;DHT22;9350;53.176;8.194;2023-07-29T15:07:29;22.70;99.90
18444;DHT22;9350;53.176;8.194;2023-07-29T15:09:55;22.70;99.90
18444;DHT22;9350;53.176;8.194;2023-07-29T15:12:22;22.70;99.90
18444;DHT22;9350;53.176;8.194;2023-07-29T15:14:50;22.70;99.90
18444;DHT22;9350;53.176;8.194;2023-07-29T15:17:16;22.60;99.90
18444;DHT22;9350;53.176;8.194;2023-07-29T15:19:43;22.40;99.90
18444;DHT22;9350;53.176;8.194;2023-07-29T15:22:10;22.40;99.90
18444;DHT22;9350;53.176;8.194;2023-07-29T15:24:38;22.30;99.90
18444;DHT22;9350;53.176;8.194;2023-07-29T15:27:08;22.20;99.90
18444;DHT22;9350;53.176;8.194;2023-07-29T15:29:34;22.10;99.90
18444;DHT22;9350;53.176;8.194;2023-07-29T15:32:01;22.00;99.90
18444;DHT22;9350;53.176;8.194;2023-07-29T15:34:28;21.90;99.90
18444;DHT22;9350;53.176;8.194;2023-07-29T15:36:57;21.80;99.90
18444;DHT22;9350;53.176;8.194;2023-07-29T15:39:23;21.70;99.90
18444;DHT22;9350;53.176;8.194;2023-07-29T15:41:52;21.60;99.90
18444;DHT22;9350;53.176;8.194;2023-07-29T15:44:19;21.60;99.90
18444;DHT22;9350;53.176;8.194;2023-07-29T15:46:45;21.50;99.90